»·PEaware :: ENY2112 KPSP-KPHX

ENY2112 :: KPSP-KPHX

FLIGHT INFORMATION

Flight Status: Arrived
Operator: Unknown
More flights by this operator :: More flights under this callsign
Pilot: James G. (23650)
Aircraft: EMBRAER EMB-145XR
(E45X)
More flights by this aircraft type
Origin: KPSP Palm Springs Intl
United States
Destination: KPHX Phoenix Sky Harbor Intl
United States
More flights between these airports :: More routes between these airports
Route: CATH1 PSP BLH HYDRR1
File this flight plan on PilotEdge
Remarks: RMK / SIMBRIEF
Altitude:
(Current/Filed)
31,000ft
Speed:
(Current/Filed)
460kts
Departed: 18-May-20 03:42 PM
Arrived: 18-May-20 04:26 PM
Distance/Time
Traveled:
226nm/0:44
Distance/Time
To Go:
Arrived

Flight Plot

Page will automatically refresh every two minutes.


Map Options




Map Legend


Flown Route
Filed Route
Departure Airport
Arrival Airport
Navaid (VOR, NDB)
Fix

Horizontal Profiles

Position Reports

Time Latitude Longitude Heading Altitude Ground
Speed
18-May-20 15:16 33.821937 -116.507100 240 483ft 0kts
18-May-20 15:17 33.821937 -116.507100 240 483ft 0kts
18-May-20 15:18 33.821937 -116.507100 240 483ft 0kts
18-May-20 15:19 33.821937 -116.507100 240 483ft 0kts
18-May-20 15:20 33.821937 -116.507100 240 483ft 0kts
18-May-20 15:21 33.821937 -116.507100 240 483ft 0kts
18-May-20 15:22 33.821937 -116.507100 240 483ft 0kts
18-May-20 15:23 33.821937 -116.507100 240 483ft 0kts
18-May-20 15:24 33.821937 -116.507100 240 483ft 0kts
18-May-20 15:25 33.821937 -116.507100 240 483ft 0kts
18-May-20 15:26 33.821937 -116.507100 240 483ft 0kts
18-May-20 15:27 33.821937 -116.507100 240 483ft 0kts
18-May-20 15:28 33.821937 -116.507100 240 483ft 0kts
18-May-20 15:29 33.821937 -116.507100 240 483ft 0kts
18-May-20 15:30 33.821937 -116.507100 240 483ft 0kts
18-May-20 15:31 33.821968 -116.507031 244 483ft 2kts
18-May-20 15:32 33.822029 -116.506811 257 483ft 0kts
18-May-20 15:33 33.822058 -116.506644 259 483ft 2kts
18-May-20 15:34 33.822122 -116.505929 267 483ft 2kts
18-May-20 15:35 33.822321 -116.505425 232 483ft 0kts
18-May-20 15:36 33.822320 -116.505426 232 483ft 0kts
18-May-20 15:37 33.821830 -116.505695 183 483ft 7kts
18-May-20 15:38 33.819684 -116.504568 88 483ft 11kts
18-May-20 15:39 33.819185 -116.500359 142 483ft 14kts
18-May-20 15:40 33.819174 -116.498348 331 483ft 8kts
18-May-20 15:41 33.848061 -116.512579 17 1780ft 216kts
18-May-20 15:42 33.870718 -116.444155 81 4721ft 222kts
18-May-20 15:43 33.844702 -116.370575 116 7010ft 261kts
18-May-20 15:44 33.812691 -116.295176 117 9833ft 281kts
18-May-20 15:45 33.749046 -116.287367 239 12735ft 289kts
18-May-20 15:46 33.786190 -116.359884 357 14980ft 343kts
18-May-20 15:47 33.847014 -116.282814 99 14995ft 336kts
18-May-20 15:48 33.813434 -116.176197 101 17161ft 369kts
18-May-20 15:49 33.793782 -116.046490 100 20101ft 415kts
18-May-20 15:50 33.772937 -115.906552 100 23381ft 439kts
18-May-20 15:51 33.750855 -115.759468 100 26560ft 452kts
18-May-20 15:52 33.728410 -115.611213 100 29031ft 431kts
18-May-20 15:53 33.707060 -115.471410 100 30937ft 442kts
18-May-20 15:54 33.684236 -115.323065 100 30966ft 443kts
18-May-20 15:55 33.662020 -115.179847 100 30972ft 431kts
18-May-20 15:56 33.639864 -115.038179 100 30980ft 433kts
18-May-20 15:57 33.616804 -114.891873 100 30966ft 445kts
18-May-20 15:58 33.593735 -114.749341 103 30963ft 423kts
18-May-20 15:59 33.566342 -114.607987 102 30976ft 445kts
18-May-20 16:00 33.537757 -114.461568 102 30974ft 453kts
18-May-20 16:01 33.509503 -114.317794 103 28797ft 434kts
18-May-20 16:02 33.480725 -114.172313 103 26274ft 452kts
18-May-20 16:03 33.452496 -114.030720 103 24956ft 396kts
18-May-20 16:04 33.427082 -113.904119 103 24531ft 409kts
18-May-20 16:05 33.400871 -113.773867 103 23528ft 394kts
18-May-20 16:06 33.374954 -113.645949 104 22535ft 390kts
18-May-20 16:07 33.350653 -113.520055 103 21531ft 385kts
18-May-20 16:08 33.326612 -113.395571 102 20534ft 382kts
18-May-20 16:09 33.304535 -113.271170 101 19530ft 380kts
18-May-20 16:10 33.286211 -113.152307 99 17957ft 339kts
18-May-20 16:11 33.275197 -113.042481 88 16352ft 339kts
18-May-20 16:12 33.277863 -112.929683 88 13357ft 338kts
18-May-20 16:13 33.282544 -112.819941 70 10984ft 310kts
18-May-20 16:14 33.316158 -112.726552 65 10582ft 308kts
18-May-20 16:15 33.352031 -112.631813 65 9628ft 309kts
18-May-20 16:16 33.385696 -112.543519 65 8452ft 272kts
18-May-20 16:17 33.413592 -112.467641 66 7847ft 243kts
18-May-20 16:18 33.428285 -112.390336 88 6563ft 239kts
18-May-20 16:19 33.435923 -112.315370 69 5892ft 224kts
18-May-20 16:20 33.441658 -112.241299 100 5191ft 231kts
18-May-20 16:21 33.440904 -112.167508 90 3474ft 195kts
18-May-20 16:22 33.440899 -112.114238 90 2561ft 135kts
18-May-20 16:23 33.440886 -112.068617 90 1841ft 141kts
18-May-20 16:24 33.440943 -112.021627 89 1124ft 125kts
18-May-20 16:25 33.440151 -112.007362 175 1128ft 0kts
18-May-20 16:27 33.440151 -112.007362 175 1128ft 0kts
18-May-20 16:28 33.439495 -112.004771 153 1128ft 20kts

Navigation Log

Ident Type
Flight plan parsing failed, navigation log unavailable